sensor_id;sensor_type;location;lat;lon;timestamp;temperature;humidity
2663;DHT22;49701;48.072;7.800;2022-08-21T00:02:23;17.30;99.90
2663;DHT22;49701;48.072;7.800;2022-08-21T00:04:50;17.20;99.90
2663;DHT22;49701;48.072;7.800;2022-08-21T00:07:17;17.20;99.90
2663;DHT22;49701;48.072;7.800;2022-08-21T00:09:43;17.10;99.90
2663;DHT22;49701;48.072;7.800;2022-08-21T00:12:10;17.00;99.90
2663;DHT22;49701;48.072;7.800;2022-08-21T00:14:36;17.00;99.90
2663;DHT22;49701;48.072;7.800;2022-08-21T00:17:03;16.90;99.90
2663;DHT22;49701;48.072;7.800;2022-08-21T00:19:29;16.90;99.90
2663;DHT22;49701;48.072;7.800;2022-08-21T00:21:55;16.90;99.90
2663;DHT22;49701;48.072;7.800;2022-08-21T00:24:22;16.90;99.90
2663;DHT22;49701;48.072;7.800;2022-08-21T00:26:48;16.90;99.90
2663;DHT22;49701;48.072;7.800;2022-08-21T00:29:14;17.00;99.90
2663;DHT22;49701;48.072;7.800;2022-08-21T00:31:41;16.90;99.90
2663;DHT22;49701;48.072;7.800;2022-08-21T00:34:07;16.90;99.90
2663;DHT22;49701;48.072;7.800;2022-08-21T00:36:34;16.90;99.90
2663;DHT22;49701;48.072;7.800;2022-08-21T00:39:00;17.00;99.90
2663;DHT22;49701;48.072;7.800;2022-08-21T00:41:27;17.00;99.90
2663;DHT22;49701;48.072;7.800;2022-08-21T00:43:54;17.00;99.90
2663;DHT22;49701;48.072;7.800;2022-08-21T00:46:20;17.10;99.90
2663;DHT22;49701;48.072;7.800;2022-08-21T00:48:45;17.10;99.90
2663;DHT22;49701;48.072;7.800;2022-08-21T00:51:17;17.10;99.90
2663;DHT22;49701;48.072;7.800;2022-08-21T00:53:53;17.10;99.90
2663;DHT22;49701;48.072;7.800;2022-08-21T00:56:20;17.10;99.90
2663;DHT22;49701;48.072;7.800;2022-08-21T00:58:47;17.10;99.90
2663;DHT22;49701;48.072;7.800;2022-08-21T01:01:13;17.10;99.90
2663;DHT22;49701;48.072;7.800;2022-08-21T01:03:39;17.10;99.90
2663;DHT22;49701;48.072;7.800;2022-08-21T01:06:06;17.00;99.90
2663;DHT22;49701;48.072;7.800;2022-08-21T01:08:33;16.90;99.90
2663;DHT22;49701;48.072;7.800;2022-08-21T01:11:00;16.90;99.90
2663;DHT22;49701;48.072;7.800;2022-08-21T01:13:28;16.90;99.90
2663;DHT22;49701;48.072;7.800;2022-08-21T01:15:56;16.90;99.90
2663;DHT22;49701;48.072;7.800;2022-08-21T01:18:22;16.90;99.90
2663;DHT22;49701;48.072;7.800;2022-08-21T01:21:13;16.80;99.90
2663;DHT22;49701;48.072;7.800;2022-08-21T01:23:42;16.70;99.90
2663;DHT22;49701;48.072;7.800;2022-08-21T01:26:08;16.70;99.90
2663;DHT22;49701;48.072;7.800;2022-08-21T01:28:37;16.60;99.90
2663;DHT22;49701;48.072;7.800;2022-08-21T01:31:07;16.60;99.90
2663;DHT22;49701;48.072;7.800;2022-08-21T01:33:35;16.50;99.90
2663;DHT22;49701;48.072;7.800;2022-08-21T01:36:01;16.50;99.90
2663;DHT22;49701;48.072;7.800;2022-08-21T01:38:27;16.40;99.90
2663;DHT22;49701;48.072;7.800;2022-08-21T01:40:52;16.50;99.90
2663;DHT22;49701;48.072;7.800;2022-08-21T01:43:18;16.50;99.90
2663;DHT22;49701;48.072;7.800;2022-08-21T01:45:44;16.60;99.90
2663;DHT22;49701;48.072;7.800;2022-08-21T01:48:09;16.50;99.90
2663;DHT22;49701;48.072;7.800;2022-08-21T01:50:35;16.50;99.90
2663;DHT22;49701;48.072;7.800;2022-08-21T01:53:01;16.50;99.90
2663;DHT22;49701;48.072;7.800;2022-08-21T01:55:26;16.50;99.90
2663;DHT22;49701;48.072;7.800;2022-08-21T01:57:52;16.40;99.90
2663;DHT22;49701;48.072;7.800;2022-08-21T02:00:20;16.40;99.90
2663;DHT22;49701;48.072;7.800;2022-08-21T02:02:48;16.40;99.90
2663;DHT22;49701;48.072;7.800;2022-08-21T02:05:13;16.50;99.90
2663;DHT22;49701;48.072;7.800;2022-08-21T02:07:47;16.50;99.90
2663;DHT22;49701;48.072;7.800;2022-08-21T02:10:15;16.50;99.90
2663;DHT22;49701;48.072;7.800;2022-08-21T02:12:42;16.50;99.90
2663;DHT22;49701;48.072;7.800;2022-08-21T02:15:08;16.40;99.90
2663;DHT22;49701;48.072;7.800;2022-08-21T02:17:43;16.40;99.90
2663;DHT22;49701;48.072;7.800;2022-08-21T02:20:11;16.30;99.90
2663;DHT22;49701;48.072;7.800;2022-08-21T02:22:39;16.20;99.90
2663;DHT22;49701;48.072;7.800;2022-08-21T02:25:05;16.20;99.90
2663;DHT22;49701;48.072;7.800;2022-08-21T02:27:40;16.20;99.90
2663;DHT22;49701;48.072;7.800;2022-08-21T02:30:08;16.10;99.90
2663;DHT22;49701;48.072;7.800;2022-08-21T02:32:34;16.10;99.90
2663;DHT22;49701;48.072;7.800;2022-08-21T02:35:00;16.10;99.90
2663;DHT22;49701;48.072;7.800;2022-08-21T02:37:25;16.00;99.90
2663;DHT22;49701;48.072;7.800;2022-08-21T02:39:51;16.00;99.90
2663;DHT22;49701;48.072;7.800;2022-08-21T02:42:16;16.00;99.90
2663;DHT22;49701;48.072;7.800;2022-08-21T02:44:42;16.00;99.90
2663;DHT22;49701;48.072;7.800;2022-08-21T02:47:08;16.00;99.90
2663;DHT22;49701;48.072;7.800;2022-08-21T02:49:33;16.00;99.90
2663;DHT22;49701;48.072;7.800;2022-08-21T02:51:59;16.00;99.90
2663;DHT22;49701;48.072;7.800;2022-08-21T02:54:25;16.00;99.90
2663;DHT22;49701;48.072;7.800;2022-08-21T02:56:50;16.00;99.90
2663;DHT22;49701;48.072;7.800;2022-08-21T02:59:16;16.00;99.90
2663;DHT22;49701;48.072;7.800;2022-08-21T03:01:41;16.00;99.90
2663;DHT22;49701;48.072;7.800;2022-08-21T03:04:07;16.00;99.90
2663;DHT22;49701;48.072;7.800;2022-08-21T03:06:33;16.00;99.90
2663;DHT22;49701;48.072;7.800;2022-08-21T03:08:59;16.00;99.90
2663;DHT22;49701;48.072;7.800;2022-08-21T03:11:24;15.90;99.90
2663;DHT22;49701;48.072;7.800;2022-08-21T03:13:51;15.90;99.90
2663;DHT22;49701;48.072;7.800;2022-08-21T03:16:17;15.90;99.90
2663;DHT22;49701;48.072;7.800;2022-08-21T03:18:44;15.90;99.90
2663;DHT22;49701;48.072;7.800;2022-08-21T03:21:10;15.80;99.90
2663;DHT22;49701;48.072;7.800;2022-08-21T03:23:36;15.70;99.90
2663;DHT22;49701;48.072;7.800;2022-08-21T03:26:05;15.60;99.90
2663;DHT22;49701;48.072;7.800;2022-08-21T03:28:31;15.50;99.90
2663;DHT22;49701;48.072;7.800;2022-08-21T03:30:56;15.50;99.90
2663;DHT22;49701;48.072;7.800;2022-08-21T03:33:22;15.50;99.90
2663;DHT22;49701;48.072;7.800;2022-08-21T03:35:56;15.60;99.90
2663;DHT22;49701;48.072;7.800;2022-08-21T03:38:23;15.60;99.90
2663;DHT22;49701;48.072;7.800;2022-08-21T03:40:49;15.60;99.90
2663;DHT22;49701;48.072;7.800;2022-08-21T03:43:14;15.60;99.90
2663;DHT22;49701;48.072;7.800;2022-08-21T03:45:40;15.60;99.90
2663;DHT22;49701;48.072;7.800;2022-08-21T03:48:07;15.60;99.90
2663;DHT22;49701;48.072;7.800;2022-08-21T03:50:34;15.60;99.90
2663;DHT22;49701;48.072;7.800;2022-08-21T03:53:02;15.60;99.90
2663;DHT22;49701;48.072;7.800;2022-08-21T03:55:28;15.60;99.90
2663;DHT22;49701;48.072;7.800;2022-08-21T03:57:54;15.60;99.90
2663;DHT22;49701;48.072;7.800;2022-08-21T04:00:20;15.60;99.90
2663;DHT22;49701;48.072;7.800;2022-08-21T04:02:46;15.60;99.90
2663;DHT22;49701;48.072;7.800;2022-08-21T04:05:13;15.60;99.90
2663;DHT22;49701;48.072;7.800;2022-08-21T04:07:39;15.60;99.90
2663;DHT22;49701;48.072;7.800;2022-08-21T04:10:06;15.50;99.90
2663;DHT22;49701;48.072;7.800;2022-08-21T04:12:32;15.40;99.90
2663;DHT22;49701;48.072;7.800;2022-08-21T04:14:57;15.30;99.90
2663;DHT22;49701;48.072;7.800;2022-08-21T04:17:23;15.20;99.90
2663;DHT22;49701;48.072;7.800;2022-08-21T04:19:49;15.10;99.90
2663;DHT22;49701;48.072;7.800;2022-08-21T04:22:15;15.10;99.90
2663;DHT22;49701;48.072;7.800;2022-08-21T04:24:41;15.00;99.90
2663;DHT22;49701;48.072;7.800;2022-08-21T04:27:06;15.00;99.90
2663;DHT22;49701;48.072;7.800;2022-08-21T04:29:32;14.90;99.90
2663;DHT22;49701;48.072;7.800;2022-08-21T04:31:57;14.80;99.90
2663;DHT22;49701;48.072;7.800;2022-08-21T04:34:23;14.80;99.90
2663;DHT22;49701;48.072;7.800;2022-08-21T04:36:48;14.70;99.90
2663;DHT22;49701;48.072;7.800;2022-08-21T04:39:14;14.70;99.90
2663;DHT22;49701;48.072;7.800;2022-08-21T04:41:39;14.60;99.90
2663;DHT22;49701;48.072;7.800;2022-08-21T04:44:06;14.60;99.90
2663;DHT22;49701;48.072;7.800;2022-08-21T04:46:33;14.70;99.90
2663;DHT22;49701;48.072;7.800;2022-08-21T04:48:59;14.70;99.90
2663;DHT22;49701;48.072;7.800;2022-08-21T04:51:28;14.70;99.90
2663;DHT22;49701;48.072;7.800;2022-08-21T04:54:17;14.70;99.90
2663;DHT22;49701;48.072;7.800;2022-08-21T04:57:05;14.70;99.90
2663;DHT22;49701;48.072;7.800;2022-08-21T04:59:41;14.70;99.90
2663;DHT22;49701;48.072;7.800;2022-08-21T05:02:08;14.80;99.90
2663;DHT22;49701;48.072;7.800;2022-08-21T05:04:37;14.80;99.90
2663;DHT22;49701;48.072;7.800;2022-08-21T05:07:05;14.90;99.90
2663;DHT22;49701;48.072;7.800;2022-08-21T05:09:32;14.90;99.90
2663;DHT22;49701;48.072;7.800;2022-08-21T05:11:58;15.00;99.90
2663;DHT22;49701;48.072;7.800;2022-08-21T05:14:25;15.10;99.90
2663;DHT22;49701;48.072;7.800;2022-08-21T05:16:52;15.10;99.90
2663;DHT22;49701;48.072;7.800;2022-08-21T05:19:18;15.20;99.90
2663;DHT22;49701;48.072;7.800;2022-08-21T05:21:45;15.40;99.90
2663;DHT22;49701;48.072;7.800;2022-08-21T05:24:13;15.40;99.90
2663;DHT22;49701;48.072;7.800;2022-08-21T05:26:39;15.50;99.90
2663;DHT22;49701;48.072;7.800;2022-08-21T05:29:05;15.50;99.90
2663;DHT22;49701;48.072;7.800;2022-08-21T05:31:30;15.60;99.90
2663;DHT22;49701;48.072;7.800;2022-08-21T05:33:56;15.60;99.90
2663;DHT22;49701;48.072;7.800;2022-08-21T05:36:22;15.70;99.90
2663;DHT22;49701;48.072;7.800;2022-08-21T05:38:48;15.70;99.90
2663;DHT22;49701;48.072;7.800;2022-08-21T05:41:13;15.70;99.90
2663;DHT22;49701;48.072;7.800;2022-08-21T05:43:39;15.60;99.90
2663;DHT22;49701;48.072;7.800;2022-08-21T05:46:06;15.60;99.90
2663;DHT22;49701;48.072;7.800;2022-08-21T05:48:32;15.60;99.90
2663;DHT22;49701;48.072;7.800;2022-08-21T05:51:04;15.60;99.90
2663;DHT22;49701;48.072;7.800;2022-08-21T05:53:30;15.70;99.90
2663;DHT22;49701;48.072;7.800;2022-08-21T05:55:56;15.70;99.90
2663;DHT22;49701;48.072;7.800;2022-08-21T05:58:21;15.80;99.90
2663;DHT22;49701;48.072;7.800;2022-08-21T06:00:49;15.90;99.90
2663;DHT22;49701;48.072;7.800;2022-08-21T06:03:26;16.00;99.90
2663;DHT22;49701;48.072;7.800;2022-08-21T06:05:52;16.10;99.90
2663;DHT22;49701;48.072;7.800;2022-08-21T06:08:18;16.20;99.90
2663;DHT22;49701;48.072;7.800;2022-08-21T06:10:45;16.20;99.90
2663;DHT22;49701;48.072;7.800;2022-08-21T06:13:11;16.20;99.90
2663;DHT22;49701;48.072;7.800;2022-08-21T06:15:37;16.30;99.90
2663;DHT22;49701;48.072;7.800;2022-08-21T06:18:03;16.30;99.90
2663;DHT22;49701;48.072;7.800;2022-08-21T06:20:29;16.40;99.90
2663;DHT22;49701;48.072;7.800;2022-08-21T06:22:54;16.50;99.90
2663;DHT22;49701;48.072;7.800;2022-08-21T06:25:20;16.70;99.90
2663;DHT22;49701;48.072;7.800;2022-08-21T06:27:46;16.80;99.90
2663;DHT22;49701;48.072;7.800;2022-08-21T06:30:13;16.90;99.90
2663;DHT22;49701;48.072;7.800;2022-08-21T06:32:39;17.00;99.90
2663;DHT22;49701;48.072;7.800;2022-08-21T06:35:05;17.10;99.90
2663;DHT22;49701;48.072;7.800;2022-08-21T06:37:31;17.20;99.90
2663;DHT22;49701;48.072;7.800;2022-08-21T06:39:57;17.30;99.90
2663;DHT22;49701;48.072;7.800;2022-08-21T06:42:22;17.40;99.90
2663;DHT22;49701;48.072;7.800;2022-08-21T06:44:48;17.60;99.90
2663;DHT22;49701;48.072;7.800;2022-08-21T06:47:14;17.80;99.90
2663;DHT22;49701;48.072;7.800;2022-08-21T06:49:40;18.00;99.90
2663;DHT22;49701;48.072;7.800;2022-08-21T06:52:10;18.20;99.90
2663;DHT22;49701;48.072;7.800;2022-08-21T06:54:36;18.50;99.90
2663;DHT22;49701;48.072;7.800;2022-08-21T06:57:02;18.80;99.90
2663;DHT22;49701;48.072;7.800;2022-08-21T06:59:28;19.00;99.90
2663;DHT22;49701;48.072;7.800;2022-08-21T07:01:53;19.20;99.90
2663;DHT22;49701;48.072;7.800;2022-08-21T07:04:19;19.40;99.90
2663;DHT22;49701;48.072;7.800;2022-08-21T07:06:45;19.60;99.90
2663;DHT22;49701;48.072;7.800;2022-08-21T07:09:11;19.80;99.90
2663;DHT22;49701;48.072;7.800;2022-08-21T07:11:37;19.90;99.90
2663;DHT22;49701;48.072;7.800;2022-08-21T07:14:03;20.10;99.90
2663;DHT22;49701;48.072;7.800;2022-08-21T07:16:29;20.40;99.90
2663;DHT22;49701;48.072;7.800;2022-08-21T07:18:55;20.70;99.90
2663;DHT22;49701;48.072;7.800;2022-08-21T07:21:24;21.00;99.90
2663;DHT22;49701;48.072;7.800;2022-08-21T07:23:50;21.20;99.90
2663;DHT22;49701;48.072;7.800;2022-08-21T07:26:18;21.10;99.90
2663;DHT22;49701;48.072;7.800;2022-08-21T07:28:46;21.10;99.90
2663;DHT22;49701;48.072;7.800;2022-08-21T07:31:14;21.20;99.90
2663;DHT22;49701;48.072;7.800;2022-08-21T07:33:41;21.50;99.90
2663;DHT22;49701;48.072;7.800;2022-08-21T07:36:07;21.70;99.90
2663;DHT22;49701;48.072;7.800;2022-08-21T07:38:32;22.00;99.90
2663;DHT22;49701;48.072;7.800;2022-08-21T07:41:00;22.10;99.90
2663;DHT22;49701;48.072;7.800;2022-08-21T07:43:27;22.10;99.90
2663;DHT22;49701;48.072;7.800;2022-08-21T07:45:53;22.10;99.90
2663;DHT22;49701;48.072;7.800;2022-08-21T07:48:20;22.10;99.90
2663;DHT22;49701;48.072;7.800;2022-08-21T07:50:45;22.30;99.90
2663;DHT22;49701;48.072;7.800;2022-08-21T07:53:11;22.50;99.90
2663;DHT22;49701;48.072;7.800;2022-08-21T07:55:37;22.70;99.90
2663;DHT22;49701;48.072;7.800;2022-08-21T07:58:02;23.00;99.90
2663;DHT22;49701;48.072;7.800;2022-08-21T08:00:29;23.20;99.90
2663;DHT22;49701;48.072;7.800;2022-08-21T08:02:56;23.20;99.90
2663;DHT22;49701;48.072;7.800;2022-08-21T08:05:25;23.20;99.90
2663;DHT22;49701;48.072;7.800;2022-08-21T08:07:51;23.40;99.90
2663;DHT22;49701;48.072;7.800;2022-08-21T08:10:17;23.70;99.90
2663;DHT22;49701;48.072;7.800;2022-08-21T08:12:44;23.90;99.90
2663;DHT22;49701;48.072;7.800;2022-08-21T08:15:16;24.00;99.90
2663;DHT22;49701;48.072;7.800;2022-08-21T08:17:43;24.30;99.90
2663;DHT22;49701;48.072;7.800;2022-08-21T08:20:10;24.50;99.90
2663;DHT22;49701;48.072;7.800;2022-08-21T08:22:37;24.70;99.90
2663;DHT22;49701;48.072;7.800;2022-08-21T08:25:04;24.90;99.90
2663;DHT22;49701;48.072;7.800;2022-08-21T08:27:30;25.10;99.90
2663;DHT22;49701;48.072;7.800;2022-08-21T08:29:56;25.40;99.90
2663;DHT22;49701;48.072;7.800;2022-08-21T08:32:22;25.60;99.90
2663;DHT22;49701;48.072;7.800;2022-08-21T08:34:48;25.70;99.90
2663;DHT22;49701;48.072;7.800;2022-08-21T08:37:14;25.90;99.90
2663;DHT22;49701;48.072;7.800;2022-08-21T08:39:40;26.20;99.90
2663;DHT22;49701;48.072;7.800;2022-08-21T08:42:13;26.40;99.90
2663;DHT22;49701;48.072;7.800;2022-08-21T08:44:44;26.50;99.90
2663;DHT22;49701;48.072;7.800;2022-08-21T08:47:16;26.70;99.90
2663;DHT22;49701;48.072;7.800;2022-08-21T08:50:08;26.80;99.90
2663;DHT22;49701;48.072;7.800;2022-08-21T08:52:46;27.00;99.70
2663;DHT22;49701;48.072;7.800;2022-08-21T08:55:18;27.10;99.40
2663;DHT22;49701;48.072;7.800;2022-08-21T08:57:47;27.30;99.50
2663;DHT22;49701;48.072;7.800;2022-08-21T09:00:16;27.60;98.80
2663;DHT22;49701;48.072;7.800;2022-08-21T09:02:44;27.80;97.90
2663;DHT22;49701;48.072;7.800;2022-08-21T09:08:09;28.00;97.80
2663;DHT22;49701;48.072;7.800;2022-08-21T09:14:01;28.80;96.80
2663;DHT22;49701;48.072;7.800;2022-08-21T09:25:21;29.70;93.60
2663;DHT22;49701;48.072;7.800;2022-08-21T09:27:47;29.80;93.60
2663;DHT22;49701;48.072;7.800;2022-08-21T09:30:14;30.00;93.00
2663;DHT22;49701;48.072;7.800;2022-08-21T09:32:40;30.20;92.10
2663;DHT22;49701;48.072;7.800;2022-08-21T09:35:13;30.30;91.50
2663;DHT22;49701;48.072;7.800;2022-08-21T09:37:50;30.50;91.00
2663;DHT22;49701;48.072;7.800;2022-08-21T09:43:21;30.70;90.00
2663;DHT22;49701;48.072;7.800;2022-08-21T09:45:49;30.80;88.20
2663;DHT22;49701;48.072;7.800;2022-08-21T09:48:25;30.90;87.30
2663;DHT22;49701;48.072;7.800;2022-08-21T09:50:52;31.10;86.80
2663;DHT22;49701;48.072;7.800;2022-08-21T09:53:20;31.40;85.00
2663;DHT22;49701;48.072;7.800;2022-08-21T09:56:00;31.50;83.40
2663;DHT22;49701;48.072;7.800;2022-08-21T09:58:47;31.60;82.10
2663;DHT22;49701;48.072;7.800;2022-08-21T10:01:20;31.60;82.30
2663;DHT22;49701;48.072;7.800;2022-08-21T10:03:46;31.70;80.80
2663;DHT22;49701;48.072;7.800;2022-08-21T10:06:27;31.80;81.00
2663;DHT22;49701;48.072;7.800;2022-08-21T10:09:14;31.80;80.30
2663;DHT22;49701;48.072;7.800;2022-08-21T10:11:49;31.80;79.70
2663;DHT22;49701;48.072;7.800;2022-08-21T10:14:33;31.80;79.70
2663;DHT22;49701;48.072;7.800;2022-08-21T10:19:42;32.40;77.00
2663;DHT22;49701;48.072;7.800;2022-08-21T10:24:49;32.80;75.70
2663;DHT22;49701;48.072;7.800;2022-08-21T10:35:37;33.40;71.80
2663;DHT22;49701;48.072;7.800;2022-08-21T10:49:18;34.40;65.80
2663;DHT22;49701;48.072;7.800;2022-08-21T10:51:52;34.60;64.00
2663;DHT22;49701;48.072;7.800;2022-08-21T10:54:42;34.80;63.10
2663;DHT22;49701;48.072;7.800;2022-08-21T10:57:11;35.00;61.50
2663;DHT22;49701;48.072;7.800;2022-08-21T10:59:39;35.20;60.20
2663;DHT22;49701;48.072;7.800;2022-08-21T11:04:56;35.10;60.80
2663;DHT22;49701;48.072;7.800;2022-08-21T11:07:30;35.10;59.50
2663;DHT22;49701;48.072;7.800;2022-08-21T11:09:58;35.30;58.60
2663;DHT22;49701;48.072;7.800;2022-08-21T11:12:33;35.50;58.10
2663;DHT22;49701;48.072;7.800;2022-08-21T11:17:35;36.00;57.50
2663;DHT22;49701;48.072;7.800;2022-08-21T11:20:10;36.30;56.30
2663;DHT22;49701;48.072;7.800;2022-08-21T11:22:58;36.10;56.00
2663;DHT22;49701;48.072;7.800;2022-08-21T11:25:37;36.00;56.50
2663;DHT22;49701;48.072;7.800;2022-08-21T11:28:11;36.20;56.10
2663;DHT22;49701;48.072;7.800;2022-08-21T11:31:13;36.40;55.30
2663;DHT22;49701;48.072;7.800;2022-08-21T11:33:48;36.40;54.40
2663;DHT22;49701;48.072;7.800;2022-08-21T11:41:34;35.50;55.30
2663;DHT22;49701;48.072;7.800;2022-08-21T11:44:27;35.40;55.20
2663;DHT22;49701;48.072;7.800;2022-08-21T11:47:38;35.60;55.70
2663;DHT22;49701;48.072;7.800;2022-08-21T11:52:40;36.00;54.40
2663;DHT22;49701;48.072;7.800;2022-08-21T11:55:21;36.40;54.10
2663;DHT22;49701;48.072;7.800;2022-08-21T12:01:30;36.80;53.80
2663;DHT22;49701;48.072;7.800;2022-08-21T12:03:24;37.00;53.20
2663;DHT22;49701;48.072;7.800;2022-08-21T12:05:58;37.30;52.10
2663;DHT22;49701;48.072;7.800;2022-08-21T12:13:52;37.30;50.70
2663;DHT22;49701;48.072;7.800;2022-08-21T12:16:28;37.10;51.60
2663;DHT22;49701;48.072;7.800;2022-08-21T12:19:02;37.20;51.90
2663;DHT22;49701;48.072;7.800;2022-08-21T12:21:28;37.30;50.50
2663;DHT22;49701;48.072;7.800;2022-08-21T12:26:48;36.80;51.30
2663;DHT22;49701;48.072;7.800;2022-08-21T12:29:25;36.70;52.20
2663;DHT22;49701;48.072;7.800;2022-08-21T12:32:03;36.60;51.80
2663;DHT22;49701;48.072;7.800;2022-08-21T12:34:55;36.70;52.20
2663;DHT22;49701;48.072;7.800;2022-08-21T12:39:43;36.50;51.90
2663;DHT22;49701;48.072;7.800;2022-08-21T12:42:20;36.70;50.20
2663;DHT22;49701;48.072;7.800;2022-08-21T12:44:57;36.70;49.50
2663;DHT22;49701;48.072;7.800;2022-08-21T12:47:26;36.50;50.40
2663;DHT22;49701;48.072;7.800;2022-08-21T12:49:54;36.70;50.50
2663;DHT22;49701;48.072;7.800;2022-08-21T12:52:29;36.90;50.40
2663;DHT22;49701;48.072;7.800;2022-08-21T12:54:55;37.00;50.00
2663;DHT22;49701;48.072;7.800;2022-08-21T12:57:26;37.20;50.10
2663;DHT22;49701;48.072;7.800;2022-08-21T12:59:55;37.30;50.00
2663;DHT22;49701;48.072;7.800;2022-08-21T13:02:22;37.40;49.80
2663;DHT22;49701;48.072;7.800;2022-08-21T13:04:48;37.60;49.70
2663;DHT22;49701;48.072;7.800;2022-08-21T13:07:25;37.70;49.60
2663;DHT22;49701;48.072;7.800;2022-08-21T13:09:53;37.80;49.20
2663;DHT22;49701;48.072;7.800;2022-08-21T13:12:20;37.70;49.50
2663;DHT22;49701;48.072;7.800;2022-08-21T13:14:46;37.70;49.20
2663;DHT22;49701;48.072;7.800;2022-08-21T13:17:14;37.70;48.30
2663;DHT22;49701;48.072;7.800;2022-08-21T13:19:40;37.60;48.80
2663;DHT22;49701;48.072;7.800;2022-08-21T13:22:12;37.50;49.10
2663;DHT22;49701;48.072;7.800;2022-08-21T13:24:38;37.40;48.50
2663;DHT22;49701;48.072;7.800;2022-08-21T13:27:14;37.10;49.30
2663;DHT22;49701;48.072;7.800;2022-08-21T13:29:40;36.90;49.50
2663;DHT22;49701;48.072;7.800;2022-08-21T13:32:05;37.00;49.40
2663;DHT22;49701;48.072;7.800;2022-08-21T13:34:34;37.10;49.10
2663;DHT22;49701;48.072;7.800;2022-08-21T13:37:03;37.30;48.80
2663;DHT22;49701;48.072;7.800;2022-08-21T13:39:29;37.40;48.80
2663;DHT22;49701;48.072;7.800;2022-08-21T13:41:55;37.30;49.00
2663;DHT22;49701;48.072;7.800;2022-08-21T13:44:23;37.30;48.80
2663;DHT22;49701;48.072;7.800;2022-08-21T13:46:52;37.20;49.20
2663;DHT22;49701;48.072;7.800;2022-08-21T13:49:19;37.20;48.90
2663;DHT22;49701;48.072;7.800;2022-08-21T13:51:45;37.30;48.40
2663;DHT22;49701;48.072;7.800;2022-08-21T13:54:22;37.40;48.80
2663;DHT22;49701;48.072;7.800;2022-08-21T13:56:48;37.40;48.40
2663;DHT22;49701;48.072;7.800;2022-08-21T13:59:35;37.50;48.30
2663;DHT22;49701;48.072;7.800;2022-08-21T14:02:21;37.40;48.40
2663;DHT22;49701;48.072;7.800;2022-08-21T14:07:19;37.40;47.80
2663;DHT22;49701;48.072;7.800;2022-08-21T14:09:45;37.40;47.90
2663;DHT22;49701;48.072;7.800;2022-08-21T14:12:13;37.20;48.10
2663;DHT22;49701;48.072;7.800;2022-08-21T14:14:39;37.20;48.70
2663;DHT22;49701;48.072;7.800;2022-08-21T14:17:06;37.20;48.80
2663;DHT22;49701;48.072;7.800;2022-08-21T14:22:20;37.10;48.70
2663;DHT22;49701;48.072;7.800;2022-08-21T14:24:46;37.10;48.20
2663;DHT22;49701;48.072;7.800;2022-08-21T14:27:11;37.20;48.30
2663;DHT22;49701;48.072;7.800;2022-08-21T14:29:41;37.10;48.50
2663;DHT22;49701;48.072;7.800;2022-08-21T14:32:14;37.20;48.50
2663;DHT22;49701;48.072;7.800;2022-08-21T14:34:41;37.10;48.50
2663;DHT22;49701;48.072;7.800;2022-08-21T14:37:06;37.00;48.70
2663;DHT22;49701;48.072;7.800;2022-08-21T14:39:32;36.90;48.70
2663;DHT22;49701;48.072;7.800;2022-08-21T14:41:57;36.90;48.80
2663;DHT22;49701;48.072;7.800;2022-08-21T14:44:24;36.90;48.80
2663;DHT22;49701;48.072;7.800;2022-08-21T14:46:49;36.90;48.60
2663;DHT22;49701;48.072;7.800;2022-08-21T14:49:15;36.80;48.60
2663;DHT22;49701;48.072;7.800;2022-08-21T14:51:40;36.80;48.80
2663;DHT22;49701;48.072;7.800;2022-08-21T14:54:06;36.70;48.70
2663;DHT22;49701;48.072;7.800;2022-08-21T14:56:32;36.60;48.90
2663;DHT22;49701;48.072;7.800;2022-08-21T14:58:59;36.30;48.70
2663;DHT22;49701;48.072;7.800;2022-08-21T15:01:25;36.10;49.40
2663;DHT22;49701;48.072;7.800;2022-08-21T15:03:51;35.90;49.50
2663;DHT22;49701;48.072;7.800;2022-08-21T15:06:17;35.70;50.10
2663;DHT22;49701;48.072;7.800;2022-08-21T15:08:46;35.40;50.20
2663;DHT22;49701;48.072;7.800;2022-08-21T15:11:15;35.20;51.40
2663;DHT22;49701;48.072;7.800;2022-08-21T15:13:41;35.00;50.80
2663;DHT22;49701;48.072;7.800;2022-08-21T15:16:07;34.90;51.30
2663;DHT22;49701;48.072;7.800;2022-08-21T15:18:33;34.70;50.80
2663;DHT22;49701;48.072;7.800;2022-08-21T15:20:59;34.60;51.40
2663;DHT22;49701;48.072;7.800;2022-08-21T15:23:24;34.40;51.90
2663;DHT22;49701;48.072;7.800;2022-08-21T15:25:50;34.20;52.00
2663;DHT22;49701;48.072;7.800;2022-08-21T15:28:15;34.10;51.60
2663;DHT22;49701;48.072;7.800;2022-08-21T15:30:42;33.80;52.10
2663;DHT22;49701;48.072;7.800;2022-08-21T15:33:08;33.60;52.10
2663;DHT22;49701;48.072;7.800;2022-08-21T15:35:34;33.50;52.40
2663;DHT22;49701;48.072;7.800;2022-08-21T15:37:59;33.20;53.20
2663;DHT22;49701;48.072;7.800;2022-08-21T15:40:25;33.10;53.30
2663;DHT22;49701;48.072;7.800;2022-08-21T15:42:51;32.90;53.30
2663;DHT22;49701;48.072;7.800;2022-08-21T15:45:18;32.80;53.70
2663;DHT22;49701;48.072;7.800;2022-08-21T15:47:44;32.70;53.90
2663;DHT22;49701;48.072;7.800;2022-08-21T15:50:10;32.60;54.40
2663;DHT22;49701;48.072;7.800;2022-08-21T15:52:36;32.60;54.80
2663;DHT22;49701;48.072;7.800;2022-08-21T15:55:02;32.40;54.30
2663;DHT22;49701;48.072;7.800;2022-08-21T15:57:28;32.30;54.20
2663;DHT22;49701;48.072;7.800;2022-08-21T15:59:55;32.10;54.30
2663;DHT22;49701;48.072;7.800;2022-08-21T16:02:25;31.90;55.30
2663;DHT22;49701;48.072;7.800;2022-08-21T16:04:51;31.80;55.90
2663;DHT22;49701;48.072;7.800;2022-08-21T16:07:16;31.60;56.60
2663;DHT22;49701;48.072;7.800;2022-08-21T16:09:42;31.50;56.90
2663;DHT22;49701;48.072;7.800;2022-08-21T16:12:09;31.40;57.20
2663;DHT22;49701;48.072;7.800;2022-08-21T16:14:36;31.30;57.40
2663;DHT22;49701;48.072;7.800;2022-08-21T16:17:05;31.30;57.80
2663;DHT22;49701;48.072;7.800;2022-08-21T16:19:31;31.40;57.80
2663;DHT22;49701;48.072;7.800;2022-08-21T16:21:56;31.40;57.40
2663;DHT22;49701;48.072;7.800;2022-08-21T16:24:22;31.40;57.70
2663;DHT22;49701;48.072;7.800;2022-08-21T16:26:48;31.30;57.30
2663;DHT22;49701;48.072;7.800;2022-08-21T16:29:14;31.30;57.30
2663;DHT22;49701;48.072;7.800;2022-08-21T16:31:40;31.20;57.60
2663;DHT22;49701;48.072;7.800;2022-08-21T16:34:05;31.10;57.70
2663;DHT22;49701;48.072;7.800;2022-08-21T16:36:31;31.00;57.70
2663;DHT22;49701;48.072;7.800;2022-08-21T16:38:57;31.00;57.50
2663;DHT22;49701;48.072;7.800;2022-08-21T16:41:23;31.00;57.60
2663;DHT22;49701;48.072;7.800;2022-08-21T16:43:51;30.90;57.40
2663;DHT22;49701;48.072;7.800;2022-08-21T16:46:17;30.80;57.30
2663;DHT22;49701;48.072;7.800;2022-08-21T16:48:43;30.80;57.50
2663;DHT22;49701;48.072;7.800;2022-08-21T16:51:09;30.70;57.70
2663;DHT22;49701;48.072;7.800;2022-08-21T16:53:35;30.60;58.00
2663;DHT22;49701;48.072;7.800;2022-08-21T16:56:02;30.50;58.00
2663;DHT22;49701;48.072;7.800;2022-08-21T16:58:34;30.50;58.30
2663;DHT22;49701;48.072;7.800;2022-08-21T17:01:02;30.40;58.90
2663;DHT22;49701;48.072;7.800;2022-08-21T17:03:33;30.30;58.60
2663;DHT22;49701;48.072;7.800;2022-08-21T17:06:00;30.10;58.80
2663;DHT22;49701;48.072;7.800;2022-08-21T17:08:26;30.00;59.00